sensor_id;sensor_type;location;lat;lon;timestamp;temperature;humidity
67777;DHT22;54576;52.020;5.536;2023-02-22T00:03:20;8.00;99.90
67777;DHT22;54576;52.020;5.536;2023-02-22T00:05:57;7.80;99.90
67777;DHT22;54576;52.020;5.536;2023-02-22T00:11:07;7.80;99.90
67777;DHT22;54576;52.020;5.536;2023-02-22T00:13:34;7.80;99.90
67777;DHT22;54576;52.020;5.536;2023-02-22T00:16:14;7.80;99.90
67777;DHT22;54576;52.020;5.536;2023-02-22T00:21:06;7.80;99.90
67777;DHT22;54576;52.020;5.536;2023-02-22T00:23:35;7.80;99.90
67777;DHT22;54576;52.020;5.536;2023-02-22T00:26:04;7.80;99.90
67777;DHT22;54576;52.020;5.536;2023-02-22T00:28:30;7.80;99.90
67777;DHT22;54576;52.020;5.536;2023-02-22T00:30:56;7.80;99.90
67777;DHT22;54576;52.020;5.536;2023-02-22T00:33:24;7.80;99.90
67777;DHT22;54576;52.020;5.536;2023-02-22T00:35:51;7.80;99.90
67777;DHT22;54576;52.020;5.536;2023-02-22T00:40:45;7.80;99.90
67777;DHT22;54576;52.020;5.536;2023-02-22T00:43:12;7.80;99.90
67777;DHT22;54576;52.020;5.536;2023-02-22T00:45:37;7.80;99.90
67777;DHT22;54576;52.020;5.536;2023-02-22T00:48:04;7.80;99.90
67777;DHT22;54576;52.020;5.536;2023-02-22T00:50:30;7.70;99.90
67777;DHT22;54576;52.020;5.536;2023-02-22T00:52:58;7.70;99.90
67777;DHT22;54576;52.020;5.536;2023-02-22T00:55:26;7.70;99.90
67777;DHT22;54576;52.020;5.536;2023-02-22T00:57:52;7.60;99.90
67777;DHT22;54576;52.020;5.536;2023-02-22T01:02:48;7.60;99.90
67777;DHT22;54576;52.020;5.536;2023-02-22T01:05:16;7.60;99.90
67777;DHT22;54576;52.020;5.536;2023-02-22T01:07:42;7.60;99.90
67777;DHT22;54576;52.020;5.536;2023-02-22T01:10:09;7.60;99.90
67777;DHT22;54576;52.020;5.536;2023-02-22T01:12:35;7.60;99.90
67777;DHT22;54576;52.020;5.536;2023-02-22T01:15:03;7.50;99.90
67777;DHT22;54576;52.020;5.536;2023-02-22T01:17:29;7.50;99.90
67777;DHT22;54576;52.020;5.536;2023-02-22T01:19:55;7.50;99.90
67777;DHT22;54576;52.020;5.536;2023-02-22T01:22:22;7.50;99.90
67777;DHT22;54576;52.020;5.536;2023-02-22T01:24:48;7.50;99.90
67777;DHT22;54576;52.020;5.536;2023-02-22T01:27:14;7.50;99.90
67777;DHT22;54576;52.020;5.536;2023-02-22T01:29:41;7.40;99.90
67777;DHT22;54576;52.020;5.536;2023-02-22T01:32:08;7.40;99.90
67777;DHT22;54576;52.020;5.536;2023-02-22T01:34:36;7.40;99.90
67777;DHT22;54576;52.020;5.536;2023-02-22T01:37:02;7.40;99.90
67777;DHT22;54576;52.020;5.536;2023-02-22T01:39:28;7.40;99.90
67777;DHT22;54576;52.020;5.536;2023-02-22T01:41:55;7.40;99.90
67777;DHT22;54576;52.020;5.536;2023-02-22T01:44:33;7.30;99.90
67777;DHT22;54576;52.020;5.536;2023-02-22T01:47:01;7.30;99.90
67777;DHT22;54576;52.020;5.536;2023-02-22T01:49:39;7.20;99.90
67777;DHT22;54576;52.020;5.536;2023-02-22T01:52:07;7.30;99.90
67777;DHT22;54576;52.020;5.536;2023-02-22T01:54:38;7.30;99.90
67777;DHT22;54576;52.020;5.536;2023-02-22T01:57:17;7.20;99.90
67777;DHT22;54576;52.020;5.536;2023-02-22T01:59:47;7.20;99.90
67777;DHT22;54576;52.020;5.536;2023-02-22T02:02:14;7.20;99.90
67777;DHT22;54576;52.020;5.536;2023-02-22T02:04:40;7.10;99.90
67777;DHT22;54576;52.020;5.536;2023-02-22T02:07:11;7.10;99.90
67777;DHT22;54576;52.020;5.536;2023-02-22T02:10:01;7.10;99.90
67777;DHT22;54576;52.020;5.536;2023-02-22T02:12:33;7.00;99.90
67777;DHT22;54576;52.020;5.536;2023-02-22T02:17:47;7.00;99.90
67777;DHT22;54576;52.020;5.536;2023-02-22T02:31:36;6.80;99.90
67777;DHT22;54576;52.020;5.536;2023-02-22T02:40:04;7.00;99.90
67777;DHT22;54576;52.020;5.536;2023-02-22T02:42:42;6.90;99.90
67777;DHT22;54576;52.020;5.536;2023-02-22T02:45:12;6.90;99.90
67777;DHT22;54576;52.020;5.536;2023-02-22T02:47:43;6.50;99.90
67777;DHT22;54576;52.020;5.536;2023-02-22T02:50:17;6.90;99.90
67777;DHT22;54576;52.020;5.536;2023-02-22T02:52:44;7.00;99.90
67777;DHT22;54576;52.020;5.536;2023-02-22T02:55:11;6.90;99.90
67777;DHT22;54576;52.020;5.536;2023-02-22T02:57:37;6.90;99.90
67777;DHT22;54576;52.020;5.536;2023-02-22T03:00:04;7.00;99.90
67777;DHT22;54576;52.020;5.536;2023-02-22T03:11:37;6.80;99.90
67777;DHT22;54576;52.020;5.536;2023-02-22T03:15:12;6.80;99.90
67777;DHT22;54576;52.020;5.536;2023-02-22T03:17:21;6.70;99.90
67777;DHT22;54576;52.020;5.536;2023-02-22T03:19:57;6.70;99.90
67777;DHT22;54576;52.020;5.536;2023-02-22T03:22:36;6.70;99.90
67777;DHT22;54576;52.020;5.536;2023-02-22T03:25:26;6.60;99.90
67777;DHT22;54576;52.020;5.536;2023-02-22T03:28:05;6.50;99.90
67777;DHT22;54576;52.020;5.536;2023-02-22T03:30:38;6.50;99.90
67777;DHT22;54576;52.020;5.536;2023-02-22T03:33:11;6.60;99.90
67777;DHT22;54576;52.020;5.536;2023-02-22T03:35:49;6.50;99.90
67777;DHT22;54576;52.020;5.536;2023-02-22T03:38:17;6.60;99.90
67777;DHT22;54576;52.020;5.536;2023-02-22T03:40:49;6.50;99.90
67777;DHT22;54576;52.020;5.536;2023-02-22T03:43:22;6.50;99.90
67777;DHT22;54576;52.020;5.536;2023-02-22T03:45:50;6.50;99.90
67777;DHT22;54576;52.020;5.536;2023-02-22T03:48:19;6.60;99.90
67777;DHT22;54576;52.020;5.536;2023-02-22T03:50:45;6.60;99.90
67777;DHT22;54576;52.020;5.536;2023-02-22T03:53:12;6.60;99.90
67777;DHT22;54576;52.020;5.536;2023-02-22T03:55:38;6.50;99.90
67777;DHT22;54576;52.020;5.536;2023-02-22T03:58:06;6.50;99.90
67777;DHT22;54576;52.020;5.536;2023-02-22T04:00:35;6.50;99.90
67777;DHT22;54576;52.020;5.536;2023-02-22T04:03:01;6.50;99.90
67777;DHT22;54576;52.020;5.536;2023-02-22T04:05:34;6.50;99.90
67777;DHT22;54576;52.020;5.536;2023-02-22T04:07:59;6.50;99.90
67777;DHT22;54576;52.020;5.536;2023-02-22T04:10:25;6.50;99.90
67777;DHT22;54576;52.020;5.536;2023-02-22T04:12:51;6.50;99.90
67777;DHT22;54576;52.020;5.536;2023-02-22T04:15:19;6.50;99.90
67777;DHT22;54576;52.020;5.536;2023-02-22T04:17:45;6.40;99.90
67777;DHT22;54576;52.020;5.536;2023-02-22T04:20:12;6.40;99.90
67777;DHT22;54576;52.020;5.536;2023-02-22T04:22:38;6.30;99.90
67777;DHT22;54576;52.020;5.536;2023-02-22T04:25:04;6.30;99.90
67777;DHT22;54576;52.020;5.536;2023-02-22T04:27:30;6.30;99.90
67777;DHT22;54576;52.020;5.536;2023-02-22T04:29:56;6.30;99.90
67777;DHT22;54576;52.020;5.536;2023-02-22T04:32:23;6.20;99.90
67777;DHT22;54576;52.020;5.536;2023-02-22T04:34:49;6.20;99.90
67777;DHT22;54576;52.020;5.536;2023-02-22T04:37:14;6.20;99.90
67777;DHT22;54576;52.020;5.536;2023-02-22T04:39:40;6.20;99.90
67777;DHT22;54576;52.020;5.536;2023-02-22T04:42:05;6.10;99.90
67777;DHT22;54576;52.020;5.536;2023-02-22T04:44:31;6.10;99.90
67777;DHT22;54576;52.020;5.536;2023-02-22T04:46:57;6.20;99.90
67777;DHT22;54576;52.020;5.536;2023-02-22T04:49:22;6.20;99.90
67777;DHT22;54576;52.020;5.536;2023-02-22T04:51:48;6.20;99.90
67777;DHT22;54576;52.020;5.536;2023-02-22T04:54:16;6.20;99.90
67777;DHT22;54576;52.020;5.536;2023-02-22T04:56:43;6.20;99.90
67777;DHT22;54576;52.020;5.536;2023-02-22T04:59:12;6.20;99.90
67777;DHT22;54576;52.020;5.536;2023-02-22T05:01:38;6.30;99.90
67777;DHT22;54576;52.020;5.536;2023-02-22T05:04:07;6.20;99.90
67777;DHT22;54576;52.020;5.536;2023-02-22T05:06:34;6.20;99.90
67777;DHT22;54576;52.020;5.536;2023-02-22T05:09:03;6.10;99.90
67777;DHT22;54576;52.020;5.536;2023-02-22T05:11:29;6.10;99.90
67777;DHT22;54576;52.020;5.536;2023-02-22T05:13:54;6.10;99.90
67777;DHT22;54576;52.020;5.536;2023-02-22T05:16:20;6.10;99.90
67777;DHT22;54576;52.020;5.536;2023-02-22T05:18:45;6.10;99.90
67777;DHT22;54576;52.020;5.536;2023-02-22T05:21:11;6.10;99.90
67777;DHT22;54576;52.020;5.536;2023-02-22T05:23:38;6.20;99.90
67777;DHT22;54576;52.020;5.536;2023-02-22T05:26:04;6.20;99.90
67777;DHT22;54576;52.020;5.536;2023-02-22T05:28:32;6.10;99.90
67777;DHT22;54576;52.020;5.536;2023-02-22T05:30:57;6.20;99.90
67777;DHT22;54576;52.020;5.536;2023-02-22T05:33:23;6.10;99.90
67777;DHT22;54576;52.020;5.536;2023-02-22T05:35:49;6.10;99.90
67777;DHT22;54576;52.020;5.536;2023-02-22T05:38:15;6.00;99.90
67777;DHT22;54576;52.020;5.536;2023-02-22T05:40:42;6.00;99.90
67777;DHT22;54576;52.020;5.536;2023-02-22T05:43:08;6.00;99.90
67777;DHT22;54576;52.020;5.536;2023-02-22T05:45:34;6.00;99.90
67777;DHT22;54576;52.020;5.536;2023-02-22T05:48:01;6.10;99.90
67777;DHT22;54576;52.020;5.536;2023-02-22T05:50:27;6.10;99.90
67777;DHT22;54576;52.020;5.536;2023-02-22T05:52:53;6.00;99.90
67777;DHT22;54576;52.020;5.536;2023-02-22T05:55:21;6.00;99.90
67777;DHT22;54576;52.020;5.536;2023-02-22T05:57:47;6.00;99.90
67777;DHT22;54576;52.020;5.536;2023-02-22T06:00:17;6.00;99.90
67777;DHT22;54576;52.020;5.536;2023-02-22T06:02:43;6.00;99.90
67777;DHT22;54576;52.020;5.536;2023-02-22T06:05:09;6.00;99.90
67777;DHT22;54576;52.020;5.536;2023-02-22T06:07:34;6.00;99.90
67777;DHT22;54576;52.020;5.536;2023-02-22T06:10:00;6.10;99.90
67777;DHT22;54576;52.020;5.536;2023-02-22T06:12:26;6.00;99.90
67777;DHT22;54576;52.020;5.536;2023-02-22T06:14:51;6.00;99.90
67777;DHT22;54576;52.020;5.536;2023-02-22T06:17:23;5.90;99.90
67777;DHT22;54576;52.020;5.536;2023-02-22T06:19:48;5.90;99.90
67777;DHT22;54576;52.020;5.536;2023-02-22T06:22:18;5.90;99.90
67777;DHT22;54576;52.020;5.536;2023-02-22T06:24:44;5.90;99.90
67777;DHT22;54576;52.020;5.536;2023-02-22T06:27:10;5.90;99.90
67777;DHT22;54576;52.020;5.536;2023-02-22T06:29:36;5.90;99.90
67777;DHT22;54576;52.020;5.536;2023-02-22T06:32:02;5.90;99.90
67777;DHT22;54576;52.020;5.536;2023-02-22T06:34:27;5.90;99.90
67777;DHT22;54576;52.020;5.536;2023-02-22T06:36:53;5.80;99.90
67777;DHT22;54576;52.020;5.536;2023-02-22T06:39:19;5.80;99.90
67777;DHT22;54576;52.020;5.536;2023-02-22T06:41:46;5.80;99.90
67777;DHT22;54576;52.020;5.536;2023-02-22T06:44:13;5.80;99.90
67777;DHT22;54576;52.020;5.536;2023-02-22T06:46:38;5.80;99.90
67777;DHT22;54576;52.020;5.536;2023-02-22T06:49:04;5.80;99.90
67777;DHT22;54576;52.020;5.536;2023-02-22T06:51:34;5.80;99.90
67777;DHT22;54576;52.020;5.536;2023-02-22T06:54:01;5.80;99.90
67777;DHT22;54576;52.020;5.536;2023-02-22T06:56:26;5.80;99.90
67777;DHT22;54576;52.020;5.536;2023-02-22T06:58:52;5.80;99.90
67777;DHT22;54576;52.020;5.536;2023-02-22T07:01:17;5.80;99.90
67777;DHT22;54576;52.020;5.536;2023-02-22T07:03:48;5.90;99.90
67777;DHT22;54576;52.020;5.536;2023-02-22T07:06:14;5.80;99.90
67777;DHT22;54576;52.020;5.536;2023-02-22T07:08:39;5.90;99.90
67777;DHT22;54576;52.020;5.536;2023-02-22T07:11:05;5.90;99.90
67777;DHT22;54576;52.020;5.536;2023-02-22T07:13:30;5.90;99.90
67777;DHT22;54576;52.020;5.536;2023-02-22T07:15:56;5.90;99.90
67777;DHT22;54576;52.020;5.536;2023-02-22T07:18:22;6.00;99.90
67777;DHT22;54576;52.020;5.536;2023-02-22T07:20:49;6.00;99.90
67777;DHT22;54576;52.020;5.536;2023-02-22T07:23:15;6.00;99.90
67777;DHT22;54576;52.020;5.536;2023-02-22T07:25:41;6.00;99.90
67777;DHT22;54576;52.020;5.536;2023-02-22T07:28:08;6.20;99.90
67777;DHT22;54576;52.020;5.536;2023-02-22T07:30:35;6.20;99.90
67777;DHT22;54576;52.020;5.536;2023-02-22T07:33:03;6.20;99.90
67777;DHT22;54576;52.020;5.536;2023-02-22T07:35:31;6.30;99.90
67777;DHT22;54576;52.020;5.536;2023-02-22T07:37:57;6.30;99.90
67777;DHT22;54576;52.020;5.536;2023-02-22T07:40:25;6.30;99.90
67777;DHT22;54576;52.020;5.536;2023-02-22T07:45:17;6.40;99.90
67777;DHT22;54576;52.020;5.536;2023-02-22T07:47:45;6.40;99.90
67777;DHT22;54576;52.020;5.536;2023-02-22T07:50:15;6.40;99.90
67777;DHT22;54576;52.020;5.536;2023-02-22T07:52:47;6.40;99.90
67777;DHT22;54576;52.020;5.536;2023-02-22T07:55:15;6.50;99.90
67777;DHT22;54576;52.020;5.536;2023-02-22T07:57:42;6.40;99.90
67777;DHT22;54576;52.020;5.536;2023-02-22T08:00:10;6.40;99.90
67777;DHT22;54576;52.020;5.536;2023-02-22T08:02:41;6.40;99.90
67777;DHT22;54576;52.020;5.536;2023-02-22T08:05:08;6.40;99.90
67777;DHT22;54576;52.020;5.536;2023-02-22T08:07:36;6.40;99.90
67777;DHT22;54576;52.020;5.536;2023-02-22T08:10:02;6.40;99.90
67777;DHT22;54576;52.020;5.536;2023-02-22T08:12:31;6.40;99.90
67777;DHT22;54576;52.020;5.536;2023-02-22T08:14:57;6.50;99.90
67777;DHT22;54576;52.020;5.536;2023-02-22T08:17:22;6.50;99.90
67777;DHT22;54576;52.020;5.536;2023-02-22T08:32:01;6.70;99.90
67777;DHT22;54576;52.020;5.536;2023-02-22T08:51:34;6.90;99.90
67777;DHT22;54576;52.020;5.536;2023-02-22T08:54:01;6.90;99.90
67777;DHT22;54576;52.020;5.536;2023-02-22T08:56:28;7.00;99.90
67777;DHT22;54576;52.020;5.536;2023-02-22T08:58:54;7.00;99.90
67777;DHT22;54576;52.020;5.536;2023-02-22T09:15:59;7.30;99.90
67777;DHT22;54576;52.020;5.536;2023-02-22T09:18:26;7.30;99.90
67777;DHT22;54576;52.020;5.536;2023-02-22T09:20:52;7.40;99.90
67777;DHT22;54576;52.020;5.536;2023-02-22T09:23:17;7.50;99.90
67777;DHT22;54576;52.020;5.536;2023-02-22T09:25:48;7.60;99.90
67777;DHT22;54576;52.020;5.536;2023-02-22T09:28:14;7.60;99.90
67777;DHT22;54576;52.020;5.536;2023-02-22T09:30:40;7.70;99.90
67777;DHT22;54576;52.020;5.536;2023-02-22T09:35:37;7.80;99.90
67777;DHT22;54576;52.020;5.536;2023-02-22T09:38:07;7.80;99.90
67777;DHT22;54576;52.020;5.536;2023-02-22T09:51:22;8.00;99.90
67777;DHT22;54576;52.020;5.536;2023-02-22T09:53:55;8.10;99.90
67777;DHT22;54576;52.020;5.536;2023-02-22T09:56:24;8.10;99.90
67777;DHT22;54576;52.020;5.536;2023-02-22T09:58:54;8.10;99.90
67777;DHT22;54576;52.020;5.536;2023-02-22T10:04:02;8.20;99.90
67777;DHT22;54576;52.020;5.536;2023-02-22T10:06:29;8.20;99.90
67777;DHT22;54576;52.020;5.536;2023-02-22T10:08:58;8.30;99.90
67777;DHT22;54576;52.020;5.536;2023-02-22T10:25:26;8.70;99.90
67777;DHT22;54576;52.020;5.536;2023-02-22T10:30:48;8.90;99.90
67777;DHT22;54576;52.020;5.536;2023-02-22T12:20:45;10.50;99.90
67777;DHT22;54576;52.020;5.536;2023-02-22T12:26:06;10.40;99.90
67777;DHT22;54576;52.020;5.536;2023-02-22T12:28:38;10.30;99.90
67777;DHT22;54576;52.020;5.536;2023-02-22T12:33:56;10.30;99.90
67777;DHT22;54576;52.020;5.536;2023-02-22T12:36:32;10.30;99.90
67777;DHT22;54576;52.020;5.536;2023-02-22T12:39:03;10.30;99.90
67777;DHT22;54576;52.020;5.536;2023-02-22T12:41:56;10.30;99.90
67777;DHT22;54576;52.020;5.536;2023-02-22T12:44:27;10.30;99.90
67777;DHT22;54576;52.020;5.536;2023-02-22T12:46:56;10.30;99.90
67777;DHT22;54576;52.020;5.536;2023-02-22T12:49:39;10.30;99.90
67777;DHT22;54576;52.020;5.536;2023-02-22T12:52:26;10.30;99.90
67777;DHT22;54576;52.020;5.536;2023-02-22T12:55:12;10.40;99.90
67777;DHT22;54576;52.020;5.536;2023-02-22T12:57:55;10.50;99.90
67777;DHT22;54576;52.020;5.536;2023-02-22T13:00:43;10.60;99.90
67777;DHT22;54576;52.020;5.536;2023-02-22T13:03:36;10.70;99.90
67777;DHT22;54576;52.020;5.536;2023-02-22T13:22:24;10.80;99.90
67777;DHT22;54576;52.020;5.536;2023-02-22T13:25:01;10.80;99.90
67777;DHT22;54576;52.020;5.536;2023-02-22T13:27:39;10.80;99.90
67777;DHT22;54576;52.020;5.536;2023-02-22T13:30:35;10.80;99.90
67777;DHT22;54576;52.020;5.536;2023-02-22T13:35:49;10.80;99.90
67777;DHT22;54576;52.020;5.536;2023-02-22T13:41:35;11.00;99.90
67777;DHT22;54576;52.020;5.536;2023-02-22T13:51:51;11.10;99.90
67777;DHT22;54576;52.020;5.536;2023-02-22T13:57:00;11.10;99.90
67777;DHT22;54576;52.020;5.536;2023-02-22T13:59:34;11.10;99.90
67777;DHT22;54576;52.020;5.536;2023-02-22T14:02:02;11.10;99.90
67777;DHT22;54576;52.020;5.536;2023-02-22T14:04:34;11.10;99.90
67777;DHT22;54576;52.020;5.536;2023-02-22T14:09:50;11.10;99.90
67777;DHT22;54576;52.020;5.536;2023-02-22T14:12:47;11.10;99.90
67777;DHT22;54576;52.020;5.536;2023-02-22T14:15:15;11.10;99.90
67777;DHT22;54576;52.020;5.536;2023-02-22T14:20:36;11.10;99.90
67777;DHT22;54576;52.020;5.536;2023-02-22T14:23:40;11.20;99.90
67777;DHT22;54576;52.020;5.536;2023-02-22T14:26:24;11.20;99.90
67777;DHT22;54576;52.020;5.536;2023-02-22T14:28:55;11.20;99.90
67777;DHT22;54576;52.020;5.536;2023-02-22T14:31:28;11.20;99.90
67777;DHT22;54576;52.020;5.536;2023-02-22T14:34:16;11.20;99.90
67777;DHT22;54576;52.020;5.536;2023-02-22T14:36:47;11.20;99.90
67777;DHT22;54576;52.020;5.536;2023-02-22T14:39:23;11.20;99.90
67777;DHT22;54576;52.020;5.536;2023-02-22T14:42:17;11.10;99.90
67777;DHT22;54576;52.020;5.536;2023-02-22T14:45:10;11.10;99.90
67777;DHT22;54576;52.020;5.536;2023-02-22T14:47:42;11.10;99.90
67777;DHT22;54576;52.020;5.536;2023-02-22T14:50:20;11.10;99.90
67777;DHT22;54576;52.020;5.536;2023-02-22T14:53:05;11.10;99.90
67777;DHT22;54576;52.020;5.536;2023-02-22T14:55:48;11.10;99.90
67777;DHT22;54576;52.020;5.536;2023-02-22T14:58:38;11.10;99.90
67777;DHT22;54576;52.020;5.536;2023-02-22T15:01:26;11.10;99.90
67777;DHT22;54576;52.020;5.536;2023-02-22T15:03:55;11.10;99.90
67777;DHT22;54576;52.020;5.536;2023-02-22T15:06:27;11.10;99.90
67777;DHT22;54576;52.020;5.536;2023-02-22T15:09:14;11.10;99.90
67777;DHT22;54576;52.020;5.536;2023-02-22T15:11:49;11.10;99.90
67777;DHT22;54576;52.020;5.536;2023-02-22T15:14:22;11.10;99.90
67777;DHT22;54576;52.020;5.536;2023-02-22T15:16:55;11.10;99.90
67777;DHT22;54576;52.020;5.536;2023-02-22T15:19:25;11.00;99.90
67777;DHT22;54576;52.020;5.536;2023-02-22T15:21:54;11.00;99.90
67777;DHT22;54576;52.020;5.536;2023-02-22T15:24:35;11.00;99.90
67777;DHT22;54576;52.020;5.536;2023-02-22T15:27:13;11.00;99.90
67777;DHT22;54576;52.020;5.536;2023-02-22T15:29:42;10.90;99.90
67777;DHT22;54576;52.020;5.536;2023-02-22T15:32:30;10.90;99.90
67777;DHT22;54576;52.020;5.536;2023-02-22T15:35:16;10.80;99.90
67777;DHT22;54576;52.020;5.536;2023-02-22T15:37:44;10.80;99.90
67777;DHT22;54576;52.020;5.536;2023-02-22T15:40:19;10.70;99.90
67777;DHT22;54576;52.020;5.536;2023-02-22T15:42:52;10.70;99.90
67777;DHT22;54576;52.020;5.536;2023-02-22T15:45:21;10.70;99.90
67777;DHT22;54576;52.020;5.536;2023-02-22T15:47:52;10.70;99.90
67777;DHT22;54576;52.020;5.536;2023-02-22T15:50:27;10.70;99.90
67777;DHT22;54576;52.020;5.536;2023-02-22T15:52:57;10.60;99.90
67777;DHT22;54576;52.020;5.536;2023-02-22T15:55:31;10.60;99.90
67777;DHT22;54576;52.020;5.536;2023-02-22T15:58:00;10.60;99.90
67777;DHT22;54576;52.020;5.536;2023-02-22T16:00:30;10.50;99.90
67777;DHT22;54576;52.020;5.536;2023-02-22T16:03:20;10.50;99.90
67777;DHT22;54576;52.020;5.536;2023-02-22T16:05:59;10.50;99.90
67777;DHT22;54576;52.020;5.536;2023-02-22T16:08:30;10.40;99.90
67777;DHT22;54576;52.020;5.536;2023-02-22T16:11:01;10.50;99.90
67777;DHT22;54576;52.020;5.536;2023-02-22T16:13:33;10.40;99.90
67777;DHT22;54576;52.020;5.536;2023-02-22T16:16:19;10.40;99.90
67777;DHT22;54576;52.020;5.536;2023-02-22T16:18:47;10.40;99.90
67777;DHT22;54576;52.020;5.536;2023-02-22T16:21:15;10.30;99.90
67777;DHT22;54576;52.020;5.536;2023-02-22T16:23:53;10.30;99.90
67777;DHT22;54576;52.020;5.536;2023-02-22T16:26:21;10.30;99.90
67777;DHT22;54576;52.020;5.536;2023-02-22T16:29:02;10.20;99.90
67777;DHT22;54576;52.020;5.536;2023-02-22T16:31:31;10.20;99.90
67777;DHT22;54576;52.020;5.536;2023-02-22T16:34:02;10.10;99.90
67777;DHT22;54576;52.020;5.536;2023-02-22T16:36:57;10.10;99.90
67777;DHT22;54576;52.020;5.536;2023-02-22T16:39:30;10.00;99.90
67777;DHT22;54576;52.020;5.536;2023-02-22T16:41:58;10.00;99.90
67777;DHT22;54576;52.020;5.536;2023-02-22T16:44:25;10.00;99.90
67777;DHT22;54576;52.020;5.536;2023-02-22T16:46:56;9.90;99.90
67777;DHT22;54576;52.020;5.536;2023-02-22T16:49:23;9.90;99.90
67777;DHT22;54576;52.020;5.536;2023-02-22T16:51:53;9.90;99.90
67777;DHT22;54576;52.020;5.536;2023-02-22T16:54:28;9.90;99.90
67777;DHT22;54576;52.020;5.536;2023-02-22T16:56:56;9.80;99.90
67777;DHT22;54576;52.020;5.536;2023-02-22T16:59:24;9.80;99.90
67777;DHT22;54576;52.020;5.536;2023-02-22T17:01:50;9.80;99.90
67777;DHT22;54576;52.020;5.536;2023-02-22T17:04:18;9.80;99.90
67777;DHT22;54576;52.020;5.536;2023-02-22T17:06:44;9.80;99.90
67777;DHT22;54576;52.020;5.536;2023-02-22T17:09:11;9.80;99.90
67777;DHT22;54576;52.020;5.536;2023-02-22T17:11:37;9.80;99.90
67777;DHT22;54576;52.020;5.536;2023-02-22T17:14:03;9.80;99.90
67777;DHT22;54576;52.020;5.536;2023-02-22T17:16:29;9.70;99.90
67777;DHT22;54576;52.020;5.536;2023-02-22T17:18:55;9.70;99.90
67777;DHT22;54576;52.020;5.536;2023-02-22T17:21:21;9.70;99.90
67777;DHT22;54576;52.020;5.536;2023-02-22T17:23:46;9.70;99.90
67777;DHT22;54576;52.020;5.536;2023-02-22T17:26:15;9.70;99.90
67777;DHT22;54576;52.020;5.536;2023-02-22T17:28:41;9.70;99.90
67777;DHT22;54576;52.020;5.536;2023-02-22T17:31:18;9.70;99.90
67777;DHT22;54576;52.020;5.536;2023-02-22T17:33:44;9.70;99.90
67777;DHT22;54576;52.020;5.536;2023-02-22T17:36:10;9.70;99.90
67777;DHT22;54576;52.020;5.536;2023-02-22T17:38:37;9.70;99.90
67777;DHT22;54576;52.020;5.536;2023-02-22T17:41:05;9.70;99.90
67777;DHT22;54576;52.020;5.536;2023-02-22T17:43:32;9.70;99.90
67777;DHT22;54576;52.020;5.536;2023-02-22T17:45:57;9.70;99.90
67777;DHT22;54576;52.020;5.536;2023-02-22T17:48:23;9.80;99.90
67777;DHT22;54576;52.020;5.536;2023-02-22T17:50:49;9.80;99.90
67777;DHT22;54576;52.020;5.536;2023-02-22T17:53:15;9.70;99.90
67777;DHT22;54576;52.020;5.536;2023-02-22T17:55:46;9.70;99.90
67777;DHT22;54576;52.020;5.536;2023-02-22T17:58:12;9.70;99.90
67777;DHT22;54576;52.020;5.536;2023-02-22T18:00:46;9.80;99.90
67777;DHT22;54576;52.020;5.536;2023-02-22T18:03:16;9.70;99.90
67777;DHT22;54576;52.020;5.536;2023-02-22T18:05:47;9.70;99.90
67777;DHT22;54576;52.020;5.536;2023-02-22T18:08:14;9.70;99.90
67777;DHT22;54576;52.020;5.536;2023-02-22T18:10:41;9.70;99.90
67777;DHT22;54576;52.020;5.536;2023-02-22T18:13:08;9.70;99.90
67777;DHT22;54576;52.020;5.536;2023-02-22T18:15:34;9.60;99.90
67777;DHT22;54576;52.020;5.536;2023-02-22T18:18:01;9.60;99.90
67777;DHT22;54576;52.020;5.536;2023-02-22T18:20:27;9.60;99.90
67777;DHT22;54576;52.020;5.536;2023-02-22T18:22:57;9.60;99.90
67777;DHT22;54576;52.020;5.536;2023-02-22T18:25:24;9.60;99.90
67777;DHT22;54576;52.020;5.536;2023-02-22T18:27:49;9.60;99.90
67777;DHT22;54576;52.020;5.536;2023-02-22T18:30:17;9.60;99.90
67777;DHT22;54576;52.020;5.536;2023-02-22T18:32:43;9.60;99.90
67777;DHT22;54576;52.020;5.536;2023-02-22T18:35:14;9.60;99.90
67777;DHT22;54576;52.020;5.536;2023-02-22T18:37:39;9.60;99.90
67777;DHT22;54576;52.020;5.536;2023-02-22T18:40:05;9.60;99.90
67777;DHT22;54576;52.020;5.536;2023-02-22T18:42:36;9.60;99.90
67777;DHT22;54576;52.020;5.536;2023-02-22T18:45:03;9.60;99.90
67777;DHT22;54576;52.020;5.536;2023-02-22T18:47:36;9.70;99.90
67777;DHT22;54576;52.020;5.536;2023-02-22T18:50:02;9.70;99.90
67777;DHT22;54576;52.020;5.536;2023-02-22T18:52:27;9.70;99.90
67777;DHT22;54576;52.020;5.536;2023-02-22T18:54:55;9.70;99.90
67777;DHT22;54576;52.020;5.536;2023-02-22T18:57:21;9.70;99.90
67777;DHT22;54576;52.020;5.536;2023-02-22T18:59:48;9.70;99.90
67777;DHT22;54576;52.020;5.536;2023-02-22T19:02:16;9.70;99.90
67777;DHT22;54576;52.020;5.536;2023-02-22T19:04:46;9.70;99.90
67777;DHT22;54576;52.020;5.536;2023-02-22T19:07:13;9.70;99.90
67777;DHT22;54576;52.020;5.536;2023-02-22T19:09:43;9.70;99.90
67777;DHT22;54576;52.020;5.536;2023-02-22T19:12:09;9.70;99.90
67777;DHT22;54576;52.020;5.536;2023-02-22T19:14:34;9.80;99.90
67777;DHT22;54576;52.020;5.536;2023-02-22T19:17:00;9.70;99.90
67777;DHT22;54576;52.020;5.536;2023-02-22T19:19:28;9.70;99.90
67777;DHT22;54576;52.020;5.536;2023-02-22T19:21:56;9.80;99.90
67777;DHT22;54576;52.020;5.536;2023-02-22T19:24:23;9.70;99.90
67777;DHT22;54576;52.020;5.536;2023-02-22T19:26:49;9.70;99.90
67777;DHT22;54576;52.020;5.536;2023-02-22T19:29:16;9.70;99.90
67777;DHT22;54576;52.020;5.536;2023-02-22T19:31:45;9.70;99.90
67777;DHT22;54576;52.020;5.536;2023-02-22T19:34:17;9.60;99.90
67777;DHT22;54576;52.020;5.536;2023-02-22T19:36:45;9.60;99.90
67777;DHT22;54576;52.020;5.536;2023-02-22T19:39:13;9.60;99.90
67777;DHT22;54576;52.020;5.536;2023-02-22T19:41:39;9.60;99.90
67777;DHT22;54576;52.020;5.536;2023-02-22T19:44:06;9.60;99.90
67777;DHT22;54576;52.020;5.536;2023-02-22T19:46:32;9.50;99.90
67777;DHT22;54576;52.020;5.536;2023-02-22T19:48:59;9.50;99.90
67777;DHT22;54576;52.020;5.536;2023-02-22T19:51:27;9.50;99.90
67777;DHT22;54576;52.020;5.536;2023-02-22T19:53:56;9.50;99.90
67777;DHT22;54576;52.020;5.536;2023-02-22T19:56:22;9.50;99.90
67777;DHT22;54576;52.020;5.536;2023-02-22T19:58:58;9.50;99.90
67777;DHT22;54576;52.020;5.536;2023-02-22T20:01:29;9.60;99.90
67777;DHT22;54576;52.020;5.536;2023-02-22T20:04:00;9.60;99.90
67777;DHT22;54576;52.020;5.536;2023-02-22T20:06:30;9.60;99.90
67777;DHT22;54576;52.020;5.536;2023-02-22T20:08:59;9.60;99.90
67777;DHT22;54576;52.020;5.536;2023-02-22T20:11:25;9.60;99.90
67777;DHT22;54576;52.020;5.536;2023-02-22T20:13:52;9.50;99.90
67777;DHT22;54576;52.020;5.536;2023-02-22T20:16:20;9.50;99.90
67777;DHT22;54576;52.020;5.536;2023-02-22T20:18:47;9.50;99.90
67777;DHT22;54576;52.020;5.536;2023-02-22T20:21:33;9.50;99.90
67777;DHT22;54576;52.020;5.536;2023-02-22T20:24:03;9.50;99.90
67777;DHT22;54576;52.020;5.536;2023-02-22T20:26:30;9.50;99.90
67777;DHT22;54576;52.020;5.536;2023-02-22T20:28:57;9.50;99.90
67777;DHT22;54576;52.020;5.536;2023-02-22T20:31:23;9.50;99.90